ADDS METAR Data INFO
IDs: Format: Raw Decoded Include TAF

Data at: 1846 UTC 17 Oct 2017

KBAF 171753Z 00000KT 10SM CLR 13/M03 A3025 RMK AO2 SLP247 T01281028 10128 20000 58020
KBAF 171653Z VRB04KT 10SM CLR 12/M03 A3028 RMK AO2 SLP257 T01171028
KBAF 171553Z 00000KT 10SM CLR 10/M03 A3030 RMK AO2 SLP264 T01001028
KBAF 171453Z 03004KT 10SM CLR 09/M03 A3031 RMK AO2 SLP267 T00891033 58002
KBAF 171353Z 36005KT 10SM CLR 08/M01 A3033 RMK AO2 SLP274 T00831011
KBAF 171253Z 00000KT 10SM CLR 05/01 A3033 RMK AO2 SLP274 T00500011
KBAF 171153Z 00000KT 10SM CLR 01/00 A3032 RMK AO2 SLP270 I1000 I6001 T00060000 10039 21011 51021
KBAF 171053Z 33003KT 10SM CLR M01/M02 A3030 RMK AO2 SLP263 T10061017
KBAF 170953Z AUTO 00000KT 10SM CLR 00/00 A3028 RMK AO2 SLP257 I1001 T00000000
KBAF 170853Z AUTO 00000KT 10SM CLR 01/00 A3025 RMK AO2 SLP249 T00060000 53014
KBAF 170753Z AUTO 00000KT 10SM CLR 02/01 A3023 RMK AO2 SLP241 T00170006
KBAF 170653Z AUTO 03004KT 10SM CLR 03/01 A3023 RMK AO2 SLP239 T00280011
KBAF 170553Z AUTO 36003KT 10SM CLR 03/01 A3021 RMK AO2 SLP233 T00330011 10094 20033 53013
KBAF 170453Z AUTO 35005KT 10SM CLR 05/01 A3019 RMK AO2 SLP227 T00500011 401780050
KBAF 170353Z AUTO 34006KT 10SM SCT050 07/02 A3018 RMK AO2 SLP224 T00670017
KBAF 170253Z AUTO 32008KT 10SM OVC055 08/02 A3017 RMK AO2 SLP220 T00780022 51022
KBAF 170153Z 32009KT 10SM BKN060 08/03 A3016 RMK AO2 SLP216 T00830028
KBAF 170053Z 32012G18KT 10SM OVC047 09/03 A3013 RMK AO2 SLP204 T00940028
KBAF 162353Z 32008KT 10SM BKN055 09/03 A3011 RMK AO2 SLP197 T00940028 10122 20089 53022
KBAF 162253Z 32009KT 10SM SCT055 10/03 A3008 RMK AO2 SLP187 T01000033
KBAF 162153Z 32011G18KT 10SM OVC046 11/04 A3005 RMK AO2 SLP178 T01110039
KBAF 162053Z 33008KT 10SM OVC038 12/04 A3004 RMK AO2 SLP174 T01220039 53019
KBAF 161953Z 34009KT 10SM BKN041 12/04 A3001 RMK AO2 SLP165 T01220039
KBAF 161853Z 34014KT 10SM CLR 12/03 A2999 RMK AO2 SLP155 T01220033
KBAF 161753Z 36015KT 10SM SCT037 12/04 A2998 RMK AO2 SLP155 T01220039 10133 20111 50004
KBAF 161653Z 33008KT 10SM BKN036 12/04 A3000 RMK AO2 SLP159 T01220044
KBAF 161553Z 35013KT 10SM FEW033 12/04 A2999 RMK AO2 SLP154 T01220044
KBAF 161526Z 34013KT 10SM SCT031 12/04 A2998 RMK AO2 T01220044
KBAF 161453Z 33010KT 10SM OVC029 12/06 A2997 RMK AO2 SLP150 T01220056 51026
KBAF 161426Z 30011KT 10SM OVC028 12/06 A2998 RMK AO2 T01170056
KBAF 161353Z 30012KT 10SM SCT032 12/05 A2996 RMK AO2 SLP145 T01170050
KBAF 161253Z COR 30011KT 10SM BKN035 12/04 A2994 RMK AO2 SLP140 T01170044
KBAF 161153Z 31017G27KT 10SM BKN030 12/06 A2990 RMK AO2 PK WND 32027/1147 SLP123 70001 T01220061 10178 20122 53020
KBAF 161053Z 33011G21KT 10SM CLR 13/07 A2986 RMK AO2 PK WND 31029/1015 SLP112 T01280067
KBAF 160953Z AUTO 32014G19KT 10SM CLR 14/07 A2985 RMK AO2 SLP107 T01390072
KBAF 160853Z AUTO 33009KT 10SM OVC110 15/09 A2984 RMK AO2 SLP103 T01500094 53023
KBAF 160753Z AUTO 31014KT 10SM OVC100 16/11 A2980 RMK AO2 SLP092 T01560106
KBAF 160653Z AUTO 30010KT 10SM OVC110 17/13 A2978 RMK AO2 SLP083 T01720128